Hlavní strana
METAR-TAF:

METAR-TAF

Letiště :

Samos, Řecko

zeměpisná šířka: 37-42N, zeměpisná délka: 026-55E, výška: 2 m

Aktuální stav počasí

Zpráva byla vytvořena před 34 minutami, v 04:50 UTC
Severní vítr 10 kt, proměnlivý mezi severoseverozápadním a severovýchodním
Teplota 6°C
Vlhkost vzduchu 56%
Tlak 1033 hPa
Viditelnost 10 km a více
Skoro jasno ve výšce 2500 ft

METAR: LGSM 210450Z 01010KT 340V040 9999 FEW025 06/M02 Q1033

Čas: 07:24 (05:24 UTC)

Předpověď počasí

Zpráva byla vytvořena před 3 hodinami a 24 minutami, v 02:00 UTC
Předpověď platná od 21 v 03 UTC do 21 v 12 UTC
Severní vítr 20 kt s nárazy do 30 kt
Viditelnost 10 km a více
Polojasno ve výšce 2500 ft

TAF: LGSM 210200Z 2103/2112 01020G30KT 9999 SCT025

Stav a předpovědi počasí z více než 4 000 letišť (zprávy METAR a TAF).

Červené a žluté tečky na mapě představují dostupné meteorologické stanice.

Když kurzor umístíte na tečku, zobrazí se název stanice.

Pak kliknutím zobrazíte stav a předpověď počasí.

Chcete-li změnit mapu, kliknutím na zelené tlačítko se znaménkem +mapu přiblížíte, kliknutím na zelené tlačítko se znaménkem – mapu oddálíte a kliknutím na zelené šipky přejdete na sousední mapy.


METAR-TAF: